sensor_id;sensor_type;location;lat;lon;timestamp;temperature;humidity
17728;DHT22;8984;49.268;12.302;2023-02-19T00:01:51;11.00;99.90
17728;DHT22;8984;49.268;12.302;2023-02-19T00:04:26;10.90;99.90
17728;DHT22;8984;49.268;12.302;2023-02-19T00:06:54;11.00;99.90
17728;DHT22;8984;49.268;12.302;2023-02-19T00:09:35;11.00;99.90
17728;DHT22;8984;49.268;12.302;2023-02-19T00:12:13;11.00;99.90
17728;DHT22;8984;49.268;12.302;2023-02-19T00:14:57;11.00;99.90
17728;DHT22;8984;49.268;12.302;2023-02-19T00:17:32;11.10;99.90
17728;DHT22;8984;49.268;12.302;2023-02-19T00:20:10;11.00;99.90
17728;DHT22;8984;49.268;12.302;2023-02-19T00:22:43;11.10;99.90
17728;DHT22;8984;49.268;12.302;2023-02-19T00:25:18;11.10;99.90
17728;DHT22;8984;49.268;12.302;2023-02-19T00:27:55;11.10;99.90
17728;DHT22;8984;49.268;12.302;2023-02-19T00:30:24;11.10;99.90
17728;DHT22;8984;49.268;12.302;2023-02-19T00:32:51;11.10;99.90
17728;DHT22;8984;49.268;12.302;2023-02-19T00:35:22;11.10;99.90
17728;DHT22;8984;49.268;12.302;2023-02-19T00:37:50;11.00;99.90
17728;DHT22;8984;49.268;12.302;2023-02-19T00:40:18;11.00;99.90
17728;DHT22;8984;49.268;12.302;2023-02-19T00:42:57;11.00;99.90
17728;DHT22;8984;49.268;12.302;2023-02-19T00:45:37;11.00;99.90
17728;DHT22;8984;49.268;12.302;2023-02-19T00:48:16;11.10;99.90
17728;DHT22;8984;49.268;12.302;2023-02-19T00:50:49;11.10;99.90
17728;DHT22;8984;49.268;12.302;2023-02-19T00:53:32;11.10;99.90
17728;DHT22;8984;49.268;12.302;2023-02-19T00:56:02;11.10;99.90
17728;DHT22;8984;49.268;12.302;2023-02-19T00:58:44;11.00;99.90
17728;DHT22;8984;49.268;12.302;2023-02-19T01:01:18;11.00;99.90
17728;DHT22;8984;49.268;12.302;2023-02-19T01:03:54;11.10;99.90
17728;DHT22;8984;49.268;12.302;2023-02-19T01:06:29;11.10;99.90
17728;DHT22;8984;49.268;12.302;2023-02-19T01:08:59;11.10;99.90
17728;DHT22;8984;49.268;12.302;2023-02-19T01:11:30;11.10;99.90
17728;DHT22;8984;49.268;12.302;2023-02-19T01:14:03;11.10;99.90
17728;DHT22;8984;49.268;12.302;2023-02-19T01:16:37;11.10;99.90
17728;DHT22;8984;49.268;12.302;2023-02-19T01:19:08;11.10;99.90
17728;DHT22;8984;49.268;12.302;2023-02-19T01:21:44;11.20;99.90
17728;DHT22;8984;49.268;12.302;2023-02-19T01:24:13;11.20;99.90
17728;DHT22;8984;49.268;12.302;2023-02-19T01:26:42;11.30;99.90
17728;DHT22;8984;49.268;12.302;2023-02-19T01:29:12;11.20;99.90
17728;DHT22;8984;49.268;12.302;2023-02-19T01:31:44;11.20;99.90
17728;DHT22;8984;49.268;12.302;2023-02-19T01:34:12;11.20;99.90
17728;DHT22;8984;49.268;12.302;2023-02-19T01:36:46;11.20;99.90
17728;DHT22;8984;49.268;12.302;2023-02-19T01:39:37;11.10;99.90
17728;DHT22;8984;49.268;12.302;2023-02-19T01:42:15;11.10;99.90
17728;DHT22;8984;49.268;12.302;2023-02-19T01:48:04;10.90;99.90
17728;DHT22;8984;49.268;12.302;2023-02-19T01:50:44;10.90;99.90
17728;DHT22;8984;49.268;12.302;2023-02-19T01:53:31;10.90;99.90
17728;DHT22;8984;49.268;12.302;2023-02-19T01:56:18;10.80;99.90
17728;DHT22;8984;49.268;12.302;2023-02-19T01:58:55;10.80;99.90
17728;DHT22;8984;49.268;12.302;2023-02-19T02:01:24;10.80;99.90
17728;DHT22;8984;49.268;12.302;2023-02-19T02:04:03;10.70;99.90
17728;DHT22;8984;49.268;12.302;2023-02-19T02:06:34;10.60;99.90
17728;DHT22;8984;49.268;12.302;2023-02-19T02:09:12;10.70;99.90
17728;DHT22;8984;49.268;12.302;2023-02-19T02:11:57;10.70;99.90
17728;DHT22;8984;49.268;12.302;2023-02-19T02:14:51;10.70;99.90
17728;DHT22;8984;49.268;12.302;2023-02-19T02:17:23;10.70;99.90
17728;DHT22;8984;49.268;12.302;2023-02-19T02:20:01;10.80;99.90
17728;DHT22;8984;49.268;12.302;2023-02-19T02:22:37;10.80;99.90
17728;DHT22;8984;49.268;12.302;2023-02-19T02:28:16;10.70;99.90
17728;DHT22;8984;49.268;12.302;2023-02-19T02:30:49;10.70;99.90
17728;DHT22;8984;49.268;12.302;2023-02-19T02:33:25;10.60;99.90
17728;DHT22;8984;49.268;12.302;2023-02-19T02:35:55;10.60;99.90
17728;DHT22;8984;49.268;12.302;2023-02-19T02:38:25;10.50;99.90
17728;DHT22;8984;49.268;12.302;2023-02-19T02:40:54;10.50;99.90
17728;DHT22;8984;49.268;12.302;2023-02-19T02:43:22;10.50;99.90
17728;DHT22;8984;49.268;12.302;2023-02-19T02:45:50;10.50;99.90
17728;DHT22;8984;49.268;12.302;2023-02-19T02:48:27;10.40;99.90
17728;DHT22;8984;49.268;12.302;2023-02-19T02:50:59;10.40;99.90
17728;DHT22;8984;49.268;12.302;2023-02-19T02:53:32;10.30;99.90
17728;DHT22;8984;49.268;12.302;2023-02-19T02:56:26;10.40;99.90
17728;DHT22;8984;49.268;12.302;2023-02-19T02:58:55;10.40;99.90
17728;DHT22;8984;49.268;12.302;2023-02-19T03:01:28;10.40;99.90
17728;DHT22;8984;49.268;12.302;2023-02-19T03:04:19;10.40;99.90
17728;DHT22;8984;49.268;12.302;2023-02-19T03:06:48;10.40;99.90
17728;DHT22;8984;49.268;12.302;2023-02-19T03:09:18;10.40;99.90
17728;DHT22;8984;49.268;12.302;2023-02-19T03:11:48;10.40;99.90
17728;DHT22;8984;49.268;12.302;2023-02-19T03:14:37;10.30;99.90
17728;DHT22;8984;49.268;12.302;2023-02-19T03:17:28;10.30;99.90
17728;DHT22;8984;49.268;12.302;2023-02-19T03:20:20;10.30;99.90
17728;DHT22;8984;49.268;12.302;2023-02-19T03:22:49;10.20;99.90
17728;DHT22;8984;49.268;12.302;2023-02-19T03:25:19;10.30;99.90
17728;DHT22;8984;49.268;12.302;2023-02-19T03:28:06;10.30;99.90
17728;DHT22;8984;49.268;12.302;2023-02-19T03:30:36;10.20;99.90
17728;DHT22;8984;49.268;12.302;2023-02-19T03:33:08;10.20;99.90
17728;DHT22;8984;49.268;12.302;2023-02-19T03:35:39;10.30;99.90
17728;DHT22;8984;49.268;12.302;2023-02-19T03:38:10;10.30;99.90
17728;DHT22;8984;49.268;12.302;2023-02-19T03:40:44;10.30;99.90
17728;DHT22;8984;49.268;12.302;2023-02-19T03:43:19;10.30;99.90
17728;DHT22;8984;49.268;12.302;2023-02-19T03:45:54;10.20;99.90
17728;DHT22;8984;49.268;12.302;2023-02-19T03:48:29;10.20;99.90
17728;DHT22;8984;49.268;12.302;2023-02-19T03:51:03;10.40;99.90
17728;DHT22;8984;49.268;12.302;2023-02-19T03:53:39;10.30;99.90
17728;DHT22;8984;49.268;12.302;2023-02-19T03:56:12;10.20;99.90
17728;DHT22;8984;49.268;12.302;2023-02-19T03:58:48;10.30;99.90
17728;DHT22;8984;49.268;12.302;2023-02-19T04:01:20;10.20;99.90
17728;DHT22;8984;49.268;12.302;2023-02-19T04:03:55;10.30;99.90
17728;DHT22;8984;49.268;12.302;2023-02-19T04:06:25;10.30;99.90
17728;DHT22;8984;49.268;12.302;2023-02-19T04:08:54;10.20;99.90
17728;DHT22;8984;49.268;12.302;2023-02-19T04:11:22;10.30;99.90
17728;DHT22;8984;49.268;12.302;2023-02-19T04:13:54;10.30;99.90
17728;DHT22;8984;49.268;12.302;2023-02-19T04:16:26;10.20;99.90
17728;DHT22;8984;49.268;12.302;2023-02-19T04:18:58;10.30;99.90
17728;DHT22;8984;49.268;12.302;2023-02-19T04:21:28;10.20;99.90
17728;DHT22;8984;49.268;12.302;2023-02-19T04:23:58;10.30;99.90
17728;DHT22;8984;49.268;12.302;2023-02-19T04:26:26;10.30;99.90
17728;DHT22;8984;49.268;12.302;2023-02-19T04:28:53;10.20;99.90
17728;DHT22;8984;49.268;12.302;2023-02-19T04:31:20;10.20;99.90
17728;DHT22;8984;49.268;12.302;2023-02-19T04:33:47;10.20;99.90
17728;DHT22;8984;49.268;12.302;2023-02-19T04:36:15;10.20;99.90
17728;DHT22;8984;49.268;12.302;2023-02-19T04:38:42;10.20;99.90
17728;DHT22;8984;49.268;12.302;2023-02-19T04:41:09;10.10;99.90
17728;DHT22;8984;49.268;12.302;2023-02-19T04:43:36;10.10;99.90
17728;DHT22;8984;49.268;12.302;2023-02-19T04:46:03;10.20;99.90
17728;DHT22;8984;49.268;12.302;2023-02-19T04:48:30;10.20;99.90
17728;DHT22;8984;49.268;12.302;2023-02-19T04:50:57;10.20;99.90
17728;DHT22;8984;49.268;12.302;2023-02-19T04:53:25;10.20;99.90
17728;DHT22;8984;49.268;12.302;2023-02-19T04:55:52;10.20;99.90
17728;DHT22;8984;49.268;12.302;2023-02-19T04:58:19;10.20;99.90
17728;DHT22;8984;49.268;12.302;2023-02-19T05:00:51;10.10;99.90
17728;DHT22;8984;49.268;12.302;2023-02-19T05:03:18;10.10;99.90
17728;DHT22;8984;49.268;12.302;2023-02-19T05:05:45;10.00;99.90
17728;DHT22;8984;49.268;12.302;2023-02-19T05:08:12;10.10;99.90
17728;DHT22;8984;49.268;12.302;2023-02-19T05:10:40;10.10;99.90
17728;DHT22;8984;49.268;12.302;2023-02-19T05:13:07;10.20;99.90
17728;DHT22;8984;49.268;12.302;2023-02-19T05:15:34;10.20;99.90
17728;DHT22;8984;49.268;12.302;2023-02-19T05:18:01;10.20;99.90
17728;DHT22;8984;49.268;12.302;2023-02-19T05:20:28;10.20;99.90
17728;DHT22;8984;49.268;12.302;2023-02-19T05:22:54;10.20;99.90
17728;DHT22;8984;49.268;12.302;2023-02-19T05:25:21;10.20;99.90
17728;DHT22;8984;49.268;12.302;2023-02-19T05:27:49;10.20;99.90
17728;DHT22;8984;49.268;12.302;2023-02-19T05:30:36;10.10;99.90
17728;DHT22;8984;49.268;12.302;2023-02-19T05:33:03;10.20;99.90
17728;DHT22;8984;49.268;12.302;2023-02-19T05:35:30;10.20;99.90
17728;DHT22;8984;49.268;12.302;2023-02-19T05:37:56;10.20;99.90
17728;DHT22;8984;49.268;12.302;2023-02-19T05:40:23;10.30;99.90
17728;DHT22;8984;49.268;12.302;2023-02-19T05:42:51;10.20;99.90
17728;DHT22;8984;49.268;12.302;2023-02-19T05:45:18;10.20;99.90
17728;DHT22;8984;49.268;12.302;2023-02-19T05:47:45;10.30;99.90
17728;DHT22;8984;49.268;12.302;2023-02-19T05:50:11;10.20;99.90
17728;DHT22;8984;49.268;12.302;2023-02-19T05:52:38;10.20;99.90
17728;DHT22;8984;49.268;12.302;2023-02-19T05:55:05;10.30;99.90
17728;DHT22;8984;49.268;12.302;2023-02-19T05:57:32;10.30;99.90
17728;DHT22;8984;49.268;12.302;2023-02-19T06:00:00;10.20;99.90
17728;DHT22;8984;49.268;12.302;2023-02-19T06:02:27;10.20;99.90
17728;DHT22;8984;49.268;12.302;2023-02-19T06:04:54;10.20;99.90
17728;DHT22;8984;49.268;12.302;2023-02-19T06:07:21;10.20;99.90
17728;DHT22;8984;49.268;12.302;2023-02-19T06:09:49;10.10;99.90
17728;DHT22;8984;49.268;12.302;2023-02-19T06:12:18;10.10;99.90
17728;DHT22;8984;49.268;12.302;2023-02-19T06:14:45;10.10;99.90
17728;DHT22;8984;49.268;12.302;2023-02-19T06:17:13;10.10;99.90
17728;DHT22;8984;49.268;12.302;2023-02-19T06:19:40;10.20;99.90
17728;DHT22;8984;49.268;12.302;2023-02-19T06:22:07;10.20;99.90
17728;DHT22;8984;49.268;12.302;2023-02-19T06:24:34;10.10;99.90
17728;DHT22;8984;49.268;12.302;2023-02-19T06:27:04;10.20;99.90
17728;DHT22;8984;49.268;12.302;2023-02-19T06:29:31;10.00;99.90
17728;DHT22;8984;49.268;12.302;2023-02-19T06:31:58;10.20;99.90
17728;DHT22;8984;49.268;12.302;2023-02-19T06:34:26;10.10;99.90
17728;DHT22;8984;49.268;12.302;2023-02-19T06:36:53;10.20;99.90
17728;DHT22;8984;49.268;12.302;2023-02-19T06:39:20;10.30;99.90
17728;DHT22;8984;49.268;12.302;2023-02-19T06:41:47;10.20;99.90
17728;DHT22;8984;49.268;12.302;2023-02-19T06:44:13;10.20;99.90
17728;DHT22;8984;49.268;12.302;2023-02-19T06:46:40;10.20;99.90
17728;DHT22;8984;49.268;12.302;2023-02-19T06:49:07;10.20;99.90
17728;DHT22;8984;49.268;12.302;2023-02-19T06:51:35;10.20;99.90
17728;DHT22;8984;49.268;12.302;2023-02-19T06:54:02;10.20;99.90
17728;DHT22;8984;49.268;12.302;2023-02-19T06:56:30;10.20;99.90
17728;DHT22;8984;49.268;12.302;2023-02-19T06:58:59;10.20;99.90
17728;DHT22;8984;49.268;12.302;2023-02-19T07:01:27;10.10;99.90
17728;DHT22;8984;49.268;12.302;2023-02-19T07:03:54;10.10;99.90
17728;DHT22;8984;49.268;12.302;2023-02-19T07:06:21;10.10;99.90
17728;DHT22;8984;49.268;12.302;2023-02-19T07:08:50;10.00;99.90
17728;DHT22;8984;49.268;12.302;2023-02-19T07:11:20;10.10;99.90
17728;DHT22;8984;49.268;12.302;2023-02-19T07:13:47;10.10;99.90
17728;DHT22;8984;49.268;12.302;2023-02-19T07:16:14;10.20;99.90
17728;DHT22;8984;49.268;12.302;2023-02-19T07:18:42;10.20;99.90
17728;DHT22;8984;49.268;12.302;2023-02-19T07:21:10;10.20;99.90
17728;DHT22;8984;49.268;12.302;2023-02-19T07:23:38;10.30;99.90
17728;DHT22;8984;49.268;12.302;2023-02-19T07:26:08;10.20;99.90
17728;DHT22;8984;49.268;12.302;2023-02-19T07:28:35;10.30;99.90
17728;DHT22;8984;49.268;12.302;2023-02-19T07:31:03;10.30;99.90
17728;DHT22;8984;49.268;12.302;2023-02-19T07:33:30;10.20;99.90
17728;DHT22;8984;49.268;12.302;2023-02-19T07:35:57;10.20;99.90
17728;DHT22;8984;49.268;12.302;2023-02-19T07:38:24;10.10;99.90
17728;DHT22;8984;49.268;12.302;2023-02-19T07:40:52;10.10;99.90
17728;DHT22;8984;49.268;12.302;2023-02-19T07:43:21;10.20;99.90
17728;DHT22;8984;49.268;12.302;2023-02-19T07:45:48;10.20;99.90
17728;DHT22;8984;49.268;12.302;2023-02-19T07:48:15;10.10;99.90
17728;DHT22;8984;49.268;12.302;2023-02-19T07:50:49;10.20;99.90
17728;DHT22;8984;49.268;12.302;2023-02-19T07:53:16;10.30;99.90
17728;DHT22;8984;49.268;12.302;2023-02-19T07:55:43;10.30;99.90
17728;DHT22;8984;49.268;12.302;2023-02-19T07:58:10;10.30;99.90
17728;DHT22;8984;49.268;12.302;2023-02-19T08:00:38;10.40;99.90
17728;DHT22;8984;49.268;12.302;2023-02-19T08:03:06;10.40;99.90
17728;DHT22;8984;49.268;12.302;2023-02-19T08:05:36;10.40;99.90
17728;DHT22;8984;49.268;12.302;2023-02-19T08:08:04;10.40;99.90
17728;DHT22;8984;49.268;12.302;2023-02-19T08:10:31;10.30;99.90
17728;DHT22;8984;49.268;12.302;2023-02-19T08:13:16;10.20;99.90
17728;DHT22;8984;49.268;12.302;2023-02-19T08:15:49;10.20;99.90
17728;DHT22;8984;49.268;12.302;2023-02-19T08:18:17;10.30;99.90
17728;DHT22;8984;49.268;12.302;2023-02-19T08:20:44;10.30;99.90
17728;DHT22;8984;49.268;12.302;2023-02-19T08:23:12;10.30;99.90
17728;DHT22;8984;49.268;12.302;2023-02-19T08:25:39;10.30;99.90
17728;DHT22;8984;49.268;12.302;2023-02-19T08:28:07;10.30;99.90
17728;DHT22;8984;49.268;12.302;2023-02-19T08:30:35;10.20;99.90
17728;DHT22;8984;49.268;12.302;2023-02-19T08:33:06;10.20;99.90
17728;DHT22;8984;49.268;12.302;2023-02-19T08:35:33;10.30;99.90
17728;DHT22;8984;49.268;12.302;2023-02-19T08:38:01;10.40;99.90
17728;DHT22;8984;49.268;12.302;2023-02-19T08:40:27;10.40;99.90
17728;DHT22;8984;49.268;12.302;2023-02-19T08:42:54;10.40;99.90
17728;DHT22;8984;49.268;12.302;2023-02-19T08:45:21;10.30;99.90
17728;DHT22;8984;49.268;12.302;2023-02-19T08:47:48;10.40;99.90
17728;DHT22;8984;49.268;12.302;2023-02-19T08:50:17;10.40;99.90
17728;DHT22;8984;49.268;12.302;2023-02-19T08:52:43;10.50;99.90
17728;DHT22;8984;49.268;12.302;2023-02-19T08:55:10;10.50;99.90
17728;DHT22;8984;49.268;12.302;2023-02-19T08:57:37;10.50;99.90
17728;DHT22;8984;49.268;12.302;2023-02-19T09:00:05;10.50;99.90
17728;DHT22;8984;49.268;12.302;2023-02-19T09:02:33;10.50;99.90
17728;DHT22;8984;49.268;12.302;2023-02-19T09:05:00;10.60;99.90
17728;DHT22;8984;49.268;12.302;2023-02-19T09:07:28;10.60;99.90
17728;DHT22;8984;49.268;12.302;2023-02-19T09:09:55;10.60;99.90
17728;DHT22;8984;49.268;12.302;2023-02-19T09:12:22;10.50;99.90
17728;DHT22;8984;49.268;12.302;2023-02-19T09:14:48;10.60;99.90
17728;DHT22;8984;49.268;12.302;2023-02-19T09:17:15;10.60;99.90
17728;DHT22;8984;49.268;12.302;2023-02-19T09:19:42;10.70;99.90
17728;DHT22;8984;49.268;12.302;2023-02-19T09:22:09;10.70;99.90
17728;DHT22;8984;49.268;12.302;2023-02-19T09:24:37;10.80;99.90
17728;DHT22;8984;49.268;12.302;2023-02-19T09:27:04;10.80;99.90
17728;DHT22;8984;49.268;12.302;2023-02-19T09:29:31;10.80;99.90
17728;DHT22;8984;49.268;12.302;2023-02-19T09:31:59;10.80;99.90
17728;DHT22;8984;49.268;12.302;2023-02-19T09:34:27;10.80;99.90
17728;DHT22;8984;49.268;12.302;2023-02-19T09:36:54;10.80;99.90
17728;DHT22;8984;49.268;12.302;2023-02-19T09:39:24;10.90;99.90
17728;DHT22;8984;49.268;12.302;2023-02-19T09:41:54;10.90;99.90
17728;DHT22;8984;49.268;12.302;2023-02-19T09:44:24;10.90;99.90
17728;DHT22;8984;49.268;12.302;2023-02-19T09:46:53;10.90;99.90
17728;DHT22;8984;49.268;12.302;2023-02-19T09:49:26;10.90;99.90
17728;DHT22;8984;49.268;12.302;2023-02-19T09:51:56;11.00;99.90
17728;DHT22;8984;49.268;12.302;2023-02-19T09:54:27;11.00;99.90
17728;DHT22;8984;49.268;12.302;2023-02-19T09:56:58;10.90;99.90
17728;DHT22;8984;49.268;12.302;2023-02-19T09:59:28;11.00;99.90
17728;DHT22;8984;49.268;12.302;2023-02-19T10:02:00;11.10;99.90
17728;DHT22;8984;49.268;12.302;2023-02-19T10:04:28;11.10;99.90
17728;DHT22;8984;49.268;12.302;2023-02-19T10:06:57;11.00;99.90
17728;DHT22;8984;49.268;12.302;2023-02-19T10:09:29;10.90;99.90
17728;DHT22;8984;49.268;12.302;2023-02-19T10:11:58;10.90;99.90
17728;DHT22;8984;49.268;12.302;2023-02-19T10:14:31;10.90;99.90
17728;DHT22;8984;49.268;12.302;2023-02-19T10:17:03;11.00;99.90
17728;DHT22;8984;49.268;12.302;2023-02-19T10:19:30;11.00;99.90
17728;DHT22;8984;49.268;12.302;2023-02-19T10:21:58;11.00;99.90
17728;DHT22;8984;49.268;12.302;2023-02-19T10:24:27;11.00;99.90
17728;DHT22;8984;49.268;12.302;2023-02-19T10:26:55;11.00;99.90
17728;DHT22;8984;49.268;12.302;2023-02-19T10:29:23;11.10;99.90
17728;DHT22;8984;49.268;12.302;2023-02-19T10:32:16;11.20;99.90
17728;DHT22;8984;49.268;12.302;2023-02-19T10:34:46;11.30;99.90
17728;DHT22;8984;49.268;12.302;2023-02-19T10:37:15;11.40;99.90
17728;DHT22;8984;49.268;12.302;2023-02-19T10:39:44;11.30;99.90
17728;DHT22;8984;49.268;12.302;2023-02-19T10:42:20;11.50;99.90
17728;DHT22;8984;49.268;12.302;2023-02-19T10:44:53;11.60;99.90
17728;DHT22;8984;49.268;12.302;2023-02-19T10:47:24;11.70;99.90
17728;DHT22;8984;49.268;12.302;2023-02-19T10:49:53;11.80;99.90
17728;DHT22;8984;49.268;12.302;2023-02-19T10:52:24;12.20;99.90
17728;DHT22;8984;49.268;12.302;2023-02-19T10:54:55;12.30;99.90
17728;DHT22;8984;49.268;12.302;2023-02-19T10:57:25;12.20;99.90
17728;DHT22;8984;49.268;12.302;2023-02-19T10:59:59;12.20;99.90
17728;DHT22;8984;49.268;12.302;2023-02-19T11:02:29;12.40;99.90
17728;DHT22;8984;49.268;12.302;2023-02-19T11:05:05;12.40;99.90
17728;DHT22;8984;49.268;12.302;2023-02-19T11:07:43;12.40;99.90
17728;DHT22;8984;49.268;12.302;2023-02-19T11:10:20;12.30;99.90
17728;DHT22;8984;49.268;12.302;2023-02-19T11:12:51;12.20;99.90
17728;DHT22;8984;49.268;12.302;2023-02-19T11:15:22;11.90;99.90
17728;DHT22;8984;49.268;12.302;2023-02-19T11:17:54;11.90;99.90
17728;DHT22;8984;49.268;12.302;2023-02-19T11:20:24;11.90;99.90
17728;DHT22;8984;49.268;12.302;2023-02-19T11:22:51;11.70;99.90
17728;DHT22;8984;49.268;12.302;2023-02-19T11:25:23;11.80;99.90
17728;DHT22;8984;49.268;12.302;2023-02-19T11:27:58;11.80;99.90
17728;DHT22;8984;49.268;12.302;2023-02-19T11:30:38;11.80;99.90
17728;DHT22;8984;49.268;12.302;2023-02-19T11:33:25;11.60;99.90
17728;DHT22;8984;49.268;12.302;2023-02-19T11:36:20;11.60;99.90
17728;DHT22;8984;49.268;12.302;2023-02-19T11:38:50;11.70;99.90
17728;DHT22;8984;49.268;12.302;2023-02-19T11:41:23;11.70;99.90
17728;DHT22;8984;49.268;12.302;2023-02-19T11:44:11;11.60;99.90
17728;DHT22;8984;49.268;12.302;2023-02-19T11:46:48;11.90;99.90
17728;DHT22;8984;49.268;12.302;2023-02-19T11:49:27;11.70;99.90
17728;DHT22;8984;49.268;12.302;2023-02-19T11:52:11;11.70;99.90
17728;DHT22;8984;49.268;12.302;2023-02-19T11:54:50;11.70;99.90
17728;DHT22;8984;49.268;12.302;2023-02-19T11:57:35;11.80;99.90
17728;DHT22;8984;49.268;12.302;2023-02-19T12:00:18;11.60;99.90
17728;DHT22;8984;49.268;12.302;2023-02-19T12:02:58;11.60;99.90
17728;DHT22;8984;49.268;12.302;2023-02-19T12:05:47;11.60;99.90
17728;DHT22;8984;49.268;12.302;2023-02-19T12:08:29;11.60;99.90
17728;DHT22;8984;49.268;12.302;2023-02-19T12:11:10;11.60;99.90
17728;DHT22;8984;49.268;12.302;2023-02-19T12:13:54;11.60;99.90
17728;DHT22;8984;49.268;12.302;2023-02-19T12:16:28;11.60;99.90
17728;DHT22;8984;49.268;12.302;2023-02-19T12:19:28;11.70;99.90
17728;DHT22;8984;49.268;12.302;2023-02-19T12:22:11;11.60;99.90
17728;DHT22;8984;49.268;12.302;2023-02-19T12:24:56;11.50;99.90
17728;DHT22;8984;49.268;12.302;2023-02-19T12:27:32;11.30;99.90
17728;DHT22;8984;49.268;12.302;2023-02-19T12:30:23;11.30;99.90
17728;DHT22;8984;49.268;12.302;2023-02-19T12:35:55;11.30;99.90
17728;DHT22;8984;49.268;12.302;2023-02-19T12:38:29;11.40;99.90
17728;DHT22;8984;49.268;12.302;2023-02-19T12:41:18;11.40;99.90
17728;DHT22;8984;49.268;12.302;2023-02-19T12:43:52;11.20;99.90
17728;DHT22;8984;49.268;12.302;2023-02-19T12:46:27;11.30;99.90
17728;DHT22;8984;49.268;12.302;2023-02-19T12:48:58;11.30;99.90
17728;DHT22;8984;49.268;12.302;2023-02-19T12:51:34;11.10;99.90
17728;DHT22;8984;49.268;12.302;2023-02-19T12:54:05;11.30;99.90
17728;DHT22;8984;49.268;12.302;2023-02-19T12:56:39;11.20;99.90
17728;DHT22;8984;49.268;12.302;2023-02-19T12:59:12;11.30;99.90
17728;DHT22;8984;49.268;12.302;2023-02-19T13:01:44;11.40;99.90
17728;DHT22;8984;49.268;12.302;2023-02-19T13:04:21;11.50;99.90
17728;DHT22;8984;49.268;12.302;2023-02-19T13:06:55;11.60;99.90
17728;DHT22;8984;49.268;12.302;2023-02-19T13:09:27;11.70;99.90
17728;DHT22;8984;49.268;12.302;2023-02-19T13:11:59;11.70;99.90
17728;DHT22;8984;49.268;12.302;2023-02-19T13:14:31;11.70;99.90
17728;DHT22;8984;49.268;12.302;2023-02-19T13:17:03;11.70;99.90
17728;DHT22;8984;49.268;12.302;2023-02-19T13:19:31;11.70;99.90
17728;DHT22;8984;49.268;12.302;2023-02-19T13:22:06;11.60;99.90
17728;DHT22;8984;49.268;12.302;2023-02-19T13:24:56;11.60;99.90
17728;DHT22;8984;49.268;12.302;2023-02-19T13:27:42;11.60;99.90
17728;DHT22;8984;49.268;12.302;2023-02-19T13:30:25;11.60;99.90
17728;DHT22;8984;49.268;12.302;2023-02-19T13:33:06;11.70;99.90
17728;DHT22;8984;49.268;12.302;2023-02-19T13:36:08;11.70;99.90
17728;DHT22;8984;49.268;12.302;2023-02-19T13:38:39;11.70;99.90
17728;DHT22;8984;49.268;12.302;2023-02-19T13:41:16;11.70;99.90
17728;DHT22;8984;49.268;12.302;2023-02-19T13:43:44;11.60;99.90
17728;DHT22;8984;49.268;12.302;2023-02-19T13:46:14;11.70;99.90
17728;DHT22;8984;49.268;12.302;2023-02-19T13:48:42;11.80;99.90
17728;DHT22;8984;49.268;12.302;2023-02-19T13:51:38;11.80;99.90
17728;DHT22;8984;49.268;12.302;2023-02-19T13:54:27;11.80;99.90
17728;DHT22;8984;49.268;12.302;2023-02-19T13:57:24;11.80;99.90
17728;DHT22;8984;49.268;12.302;2023-02-19T13:59:53;11.70;99.90
17728;DHT22;8984;49.268;12.302;2023-02-19T14:02:30;11.60;99.90
17728;DHT22;8984;49.268;12.302;2023-02-19T14:04:58;11.50;99.90
17728;DHT22;8984;49.268;12.302;2023-02-19T14:07:48;11.40;99.90
17728;DHT22;8984;49.268;12.302;2023-02-19T14:13:58;11.40;99.90
17728;DHT22;8984;49.268;12.302;2023-02-19T14:16:58;11.30;99.90
17728;DHT22;8984;49.268;12.302;2023-02-19T14:19:59;11.40;99.90
17728;DHT22;8984;49.268;12.302;2023-02-19T14:25:32;11.40;99.90
17728;DHT22;8984;49.268;12.302;2023-02-19T14:28:02;11.50;99.90
17728;DHT22;8984;49.268;12.302;2023-02-19T14:30:32;11.40;99.90
17728;DHT22;8984;49.268;12.302;2023-02-19T14:33:01;11.50;99.90
17728;DHT22;8984;49.268;12.302;2023-02-19T14:35:33;11.60;99.90
17728;DHT22;8984;49.268;12.302;2023-02-19T14:38:01;11.70;99.90
17728;DHT22;8984;49.268;12.302;2023-02-19T14:40:35;11.70;99.90
17728;DHT22;8984;49.268;12.302;2023-02-19T14:43:04;11.90;99.90
17728;DHT22;8984;49.268;12.302;2023-02-19T14:45:38;11.90;99.90
17728;DHT22;8984;49.268;12.302;2023-02-19T14:48:14;11.90;99.90
17728;DHT22;8984;49.268;12.302;2023-02-19T14:50:46;11.60;99.90
17728;DHT22;8984;49.268;12.302;2023-02-19T14:53:14;11.80;99.90
17728;DHT22;8984;49.268;12.302;2023-02-19T14:55:44;11.70;99.90
17728;DHT22;8984;49.268;12.302;2023-02-19T14:58:15;11.80;99.90
17728;DHT22;8984;49.268;12.302;2023-02-19T15:00:45;11.80;99.90
17728;DHT22;8984;49.268;12.302;2023-02-19T15:03:31;11.80;99.90
17728;DHT22;8984;49.268;12.302;2023-02-19T15:06:02;11.90;99.90
17728;DHT22;8984;49.268;12.302;2023-02-19T15:08:35;11.70;99.90
17728;DHT22;8984;49.268;12.302;2023-02-19T15:11:07;11.70;99.90
17728;DHT22;8984;49.268;12.302;2023-02-19T15:13:35;11.70;99.90
17728;DHT22;8984;49.268;12.302;2023-02-19T15:16:05;11.70;99.90
17728;DHT22;8984;49.268;12.302;2023-02-19T15:18:31;11.70;99.90
17728;DHT22;8984;49.268;12.302;2023-02-19T15:21:02;11.60;99.90
17728;DHT22;8984;49.268;12.302;2023-02-19T15:23:31;11.60;99.90
17728;DHT22;8984;49.268;12.302;2023-02-19T15:26:00;11.60;99.90
17728;DHT22;8984;49.268;12.302;2023-02-19T15:28:32;11.60;99.90
17728;DHT22;8984;49.268;12.302;2023-02-19T15:31:05;11.50;99.90
17728;DHT22;8984;49.268;12.302;2023-02-19T15:33:33;11.40;99.90
17728;DHT22;8984;49.268;12.302;2023-02-19T15:36:03;11.30;99.90
17728;DHT22;8984;49.268;12.302;2023-02-19T15:38:30;11.30;99.90
17728;DHT22;8984;49.268;12.302;2023-02-19T15:40:58;11.30;99.90
17728;DHT22;8984;49.268;12.302;2023-02-19T15:43:27;11.20;99.90
17728;DHT22;8984;49.268;12.302;2023-02-19T15:45:58;11.30;99.90
17728;DHT22;8984;49.268;12.302;2023-02-19T15:48:29;11.30;99.90
17728;DHT22;8984;49.268;12.302;2023-02-19T15:51:00;11.30;99.90
17728;DHT22;8984;49.268;12.302;2023-02-19T15:53:35;11.30;99.90
17728;DHT22;8984;49.268;12.302;2023-02-19T15:56:06;11.20;99.90
17728;DHT22;8984;49.268;12.302;2023-02-19T15:58:37;11.20;99.90
17728;DHT22;8984;49.268;12.302;2023-02-19T16:01:13;11.10;99.90
17728;DHT22;8984;49.268;12.302;2023-02-19T16:03:43;11.20;99.90
17728;DHT22;8984;49.268;12.302;2023-02-19T16:06:11;11.10;99.90
17728;DHT22;8984;49.268;12.302;2023-02-19T16:08:41;11.20;99.90
17728;DHT22;8984;49.268;12.302;2023-02-19T16:11:26;11.10;99.90
17728;DHT22;8984;49.268;12.302;2023-02-19T16:14:15;11.10;99.90
17728;DHT22;8984;49.268;12.302;2023-02-19T16:16:44;11.10;99.90
17728;DHT22;8984;49.268;12.302;2023-02-19T16:19:19;11.10;99.90